Time;durP1;ratioP1;P1;durP2;ratioP2;P2;SDS_P1;SDS_P2;PMS_P1;PMS_P2;Temp;Humidity;BMP_temperature;BMP_pressure;BME280_temperature;BME280_humidity;BME280_pressure;Samples;Min_cycle;Max_cycle;Signal;HPM_P1;HPM_P2
2022/11/25 00:04:23;;;;;;;;;;;9.50;99.90;;;;;;5053291;28;20685;-71
2022/11/25 00:06:49;;;;;;;;;;;9.50;99.90;;;;;;5035264;28;19964;-71
2022/11/25 00:09:14;;;;;;;;;;;9.40;99.90;;;;;;5081601;28;19908;-70
2022/11/25 00:11:41;;;;;;;;;;;9.40;99.90;;;;;;5068178;28;19919;-71
2022/11/25 00:14:11;;;;;;;;;;;9.40;99.90;;;;;;5084491;28;19916;-70
2022/11/25 00:16:37;;;;;;;;;;;9.30;99.90;;;;;;5081288;28;19912;-70
2022/11/25 00:19:03;;;;;;;;;;;9.30;99.90;;;;;;5095936;28;19943;-70
2022/11/25 00:21:30;;;;;;;;;;;9.40;99.90;;;;;;5099816;28;20563;-70
2022/11/25 00:23:57;;;;;;;;;;;9.50;99.90;;;;;;5091983;28;19913;-70
2022/11/25 00:26:23;;;;;;;;;;;9.50;99.90;;;;;;5101041;28;19916;-70
2022/11/25 00:28:49;;;;;;;;;;;9.50;99.90;;;;;;5097271;28;19947;-70
2022/11/25 00:31:17;;;;;;;;;;;9.60;99.90;;;;;;5097376;28;19912;-70
2022/11/25 00:33:43;;;;;;;;;;;9.60;99.90;;;;;;5113316;27;19922;-70
2022/11/25 00:36:14;;;;;;;;;;;9.50;99.90;;;;;;5110470;27;19969;-70
2022/11/25 00:38:40;;;;;;;;;;;9.50;99.90;;;;;;5098678;28;20007;-70
2022/11/25 00:46:34;;;;;;;;;;;9.90;99.90;;;;;;5094300;28;19919;-71
2022/11/25 00:49:00;;;;;;;;;;;10.00;99.90;;;;;;5098777;28;19916;-71
2022/11/25 00:51:25;;;;;;;;;;;10.10;99.90;;;;;;5094733;28;20361;-70
2022/11/25 00:53:51;;;;;;;;;;;10.00;99.90;;;;;;5096087;28;20424;-71
2022/11/25 00:56:17;;;;;;;;;;;10.10;99.90;;;;;;5099498;28;20356;-71
2022/11/25 00:58:43;;;;;;;;;;;10.10;99.90;;;;;;5098040;28;20005;-71
2022/11/25 01:01:09;;;;;;;;;;;10.10;99.90;;;;;;5113851;27;19957;-70
2022/11/25 01:03:38;;;;;;;;;;;10.10;99.90;;;;;;5095113;28;20009;-70
2022/11/25 01:06:04;;;;;;;;;;;10.10;99.90;;;;;;5094642;28;19908;-70
2022/11/25 01:08:31;;;;;;;;;;;10.20;99.90;;;;;;5094591;28;19919;-71
2022/11/25 01:10:57;;;;;;;;;;;10.20;99.90;;;;;;5105594;28;19916;-70
2022/11/25 01:13:23;;;;;;;;;;;10.30;99.90;;;;;;5114615;28;19950;-70
2022/11/25 01:15:49;;;;;;;;;;;10.30;99.90;;;;;;5114456;28;19907;-70
2022/11/25 01:18:14;;;;;;;;;;;10.50;99.90;;;;;;5104031;28;20014;-70
2022/11/25 01:20:40;;;;;;;;;;;10.50;99.90;;;;;;5093346;28;19909;-71
2022/11/25 01:23:06;;;;;;;;;;;10.60;99.90;;;;;;5075804;28;19916;-71
2022/11/25 01:25:35;;;;;;;;;;;10.60;99.90;;;;;;5075395;28;19915;-71
2022/11/25 01:28:00;;;;;;;;;;;10.50;99.90;;;;;;5075704;28;19908;-71
2022/11/25 01:30:26;;;;;;;;;;;10.50;99.90;;;;;;5077530;28;19919;-71
2022/11/25 01:32:52;;;;;;;;;;;10.60;99.90;;;;;;5076213;28;20392;-71
2022/11/25 01:35:18;;;;;;;;;;;10.60;99.90;;;;;;5100771;28;19961;-70
2022/11/25 01:37:44;;;;;;;;;;;10.50;99.90;;;;;;5085773;28;20033;-71
2022/11/25 01:40:10;;;;;;;;;;;10.40;99.90;;;;;;5098163;28;19920;-71
2022/11/25 01:42:41;;;;;;;;;;;10.20;99.90;;;;;;5077172;28;19914;-70
2022/11/25 01:45:22;;;;;;;;;;;10.20;99.90;;;;;;5086859;28;19912;-70
2022/11/25 01:47:52;;;;;;;;;;;10.20;99.90;;;;;;5091494;28;19959;-71
2022/11/25 01:50:19;;;;;;;;;;;10.20;99.90;;;;;;5063237;28;19909;-70
2022/11/25 01:52:46;;;;;;;;;;;10.20;99.90;;;;;;5081802;28;19966;-71
2022/11/25 01:55:15;;;;;;;;;;;10.10;99.90;;;;;;5084018;28;19930;-70
2022/11/25 01:57:44;;;;;;;;;;;10.10;99.90;;;;;;5079428;28;19920;-70
2022/11/25 02:00:10;;;;;;;;;;;10.10;99.90;;;;;;5065549;28;19927;-71
2022/11/25 02:02:36;;;;;;;;;;;10.20;99.90;;;;;;5094169;28;19927;-70
2022/11/25 02:05:12;;;;;;;;;;;10.30;99.90;;;;;;5083241;28;20376;-71
2022/11/25 02:07:40;;;;;;;;;;;10.40;99.90;;;;;;5109684;28;19907;-71
2022/11/25 02:10:13;;;;;;;;;;;10.30;99.90;;;;;;5102666;28;19919;-70
2022/11/25 02:12:42;;;;;;;;;;;10.30;99.90;;;;;;5093756;28;19912;-71
2022/11/25 02:15:08;;;;;;;;;;;10.20;99.90;;;;;;5093665;28;19912;-70
2022/11/25 02:17:34;;;;;;;;;;;10.20;99.90;;;;;;5075481;28;19908;-70
2022/11/25 02:20:03;;;;;;;;;;;10.30;99.90;;;;;;5093744;28;20321;-70
2022/11/25 02:22:49;;;;;;;;;;;10.40;99.90;;;;;;5095542;28;19919;-70
2022/11/25 02:25:16;;;;;;;;;;;10.40;99.90;;;;;;5096299;28;19992;-71
2022/11/25 02:27:44;;;;;;;;;;;10.40;99.90;;;;;;5097741;28;19912;-70
2022/11/25 02:30:10;;;;;;;;;;;10.40;99.90;;;;;;5095885;28;20300;-70
2022/11/25 02:32:35;;;;;;;;;;;10.40;99.90;;;;;;5082574;28;19922;-70
2022/11/25 02:35:01;;;;;;;;;;;10.50;99.90;;;;;;5102770;27;19924;-70
2022/11/25 02:37:27;;;;;;;;;;;10.50;99.90;;;;;;5088563;28;19951;-70
2022/11/25 02:39:56;;;;;;;;;;;10.40;99.90;;;;;;5076419;28;19952;-70
2022/11/25 02:42:23;;;;;;;;;;;10.40;99.90;;;;;;5087828;28;19912;-71
2022/11/25 02:44:49;;;;;;;;;;;10.40;99.90;;;;;;5097900;28;19913;-71
2022/11/25 02:47:15;;;;;;;;;;;10.30;99.90;;;;;;5071438;28;20308;-72
2022/11/25 02:49:40;;;;;;;;;;;10.20;99.90;;;;;;5095290;28;19912;-70
2022/11/25 02:52:06;;;;;;;;;;;10.20;99.90;;;;;;5102575;28;19912;-70
2022/11/25 02:54:32;;;;;;;;;;;10.20;99.90;;;;;;5102870;28;19960;-70
2022/11/25 02:56:58;;;;;;;;;;;10.20;99.90;;;;;;5096961;28;19915;-71
2022/11/25 02:59:23;;;;;;;;;;;10.20;99.90;;;;;;5098606;28;19908;-71
2022/11/25 03:01:49;;;;;;;;;;;10.30;99.90;;;;;;5096459;28;19912;-69
2022/11/25 03:04:15;;;;;;;;;;;10.30;99.90;;;;;;5107928;28;19908;-71
2022/11/25 03:06:40;;;;;;;;;;;10.40;99.90;;;;;;5116789;28;19938;-70
2022/11/25 03:09:06;;;;;;;;;;;10.40;99.90;;;;;;5093337;28;19923;-71
2022/11/25 03:14:19;;;;;;;;;;;10.30;99.90;;;;;;5097158;28;20324;-70
2022/11/25 03:16:45;;;;;;;;;;;10.40;99.90;;;;;;5096849;28;19908;-70
2022/11/25 03:19:10;;;;;;;;;;;10.40;99.90;;;;;;5098085;28;20073;-70
2022/11/25 03:21:36;;;;;;;;;;;10.40;99.90;;;;;;5078874;28;19908;-70
2022/11/25 03:24:02;;;;;;;;;;;10.30;99.90;;;;;;5079896;28;19912;-71
2022/11/25 03:26:27;;;;;;;;;;;10.30;99.90;;;;;;5067713;28;20070;-71
2022/11/25 03:28:53;;;;;;;;;;;10.30;99.90;;;;;;5060212;28;19912;-70
2022/11/25 03:31:19;;;;;;;;;;;10.20;99.90;;;;;;5091648;28;19999;-70
2022/11/25 03:33:45;;;;;;;;;;;10.20;99.90;;;;;;5096440;28;19923;-70
2022/11/25 03:36:10;;;;;;;;;;;10.20;99.90;;;;;;5097649;28;19964;-70
2022/11/25 03:38:36;;;;;;;;;;;10.10;99.90;;;;;;5094543;28;19908;-70
2022/11/25 03:41:02;;;;;;;;;;;10.10;99.90;;;;;;5078005;28;19908;-70
2022/11/25 03:43:27;;;;;;;;;;;10.10;99.90;;;;;;5098287;28;20328;-69
2022/11/25 03:45:53;;;;;;;;;;;10.10;99.90;;;;;;5097480;28;19912;-71
2022/11/25 03:48:19;;;;;;;;;;;10.20;99.90;;;;;;5105079;28;20233;-70
2022/11/25 03:50:46;;;;;;;;;;;10.20;99.90;;;;;;5102452;28;19912;-70
2022/11/25 03:53:12;;;;;;;;;;;10.20;99.90;;;;;;5091999;28;19966;-70
2022/11/25 03:55:37;;;;;;;;;;;10.20;99.90;;;;;;5092049;28;19912;-70
2022/11/25 03:58:03;;;;;;;;;;;10.20;99.90;;;;;;5096208;28;19912;-70
2022/11/25 04:00:29;;;;;;;;;;;10.10;99.90;;;;;;5095669;28;19947;-70
2022/11/25 04:02:55;;;;;;;;;;;10.00;99.90;;;;;;5104099;28;19919;-70
2022/11/25 04:05:21;;;;;;;;;;;10.00;99.90;;;;;;5094653;28;20348;-71
2022/11/25 04:07:46;;;;;;;;;;;10.00;99.90;;;;;;5095595;28;19920;-70
2022/11/25 04:10:12;;;;;;;;;;;9.90;99.90;;;;;;5099038;28;19914;-70
2022/11/25 04:12:47;;;;;;;;;;;9.90;99.90;;;;;;5113890;28;19967;-71
2022/11/25 04:15:16;;;;;;;;;;;9.80;99.90;;;;;;5094174;28;20163;-69
2022/11/25 04:17:42;;;;;;;;;;;9.80;99.90;;;;;;5086956;28;19928;-70
2022/11/25 04:20:08;;;;;;;;;;;9.80;99.90;;;;;;5099746;27;19912;-70
2022/11/25 04:22:36;;;;;;;;;;;9.80;99.90;;;;;;5098863;28;19982;-70
2022/11/25 04:25:02;;;;;;;;;;;9.80;99.90;;;;;;5078635;28;19945;-71
2022/11/25 04:27:27;;;;;;;;;;;9.70;99.90;;;;;;5091198;28;19927;-70
2022/11/25 04:30:02;;;;;;;;;;;9.70;99.90;;;;;;5082926;28;19923;-70
2022/11/25 04:32:28;;;;;;;;;;;9.70;99.90;;;;;;5111354;28;20514;-70
2022/11/25 04:35:06;;;;;;;;;;;9.60;99.90;;;;;;5106228;28;19920;-71
2022/11/25 04:37:31;;;;;;;;;;;9.60;99.90;;;;;;5108726;28;19912;-70
2022/11/25 04:39:57;;;;;;;;;;;9.60;99.90;;;;;;5103110;28;20392;-70
2022/11/25 04:42:35;;;;;;;;;;;9.60;99.90;;;;;;5101951;28;19919;-70
2022/11/25 04:45:03;;;;;;;;;;;9.60;99.90;;;;;;5092841;28;19918;-70
2022/11/25 04:47:38;;;;;;;;;;;9.60;99.90;;;;;;5104211;28;19916;-71
2022/11/25 04:50:06;;;;;;;;;;;9.70;99.90;;;;;;5102764;28;19982;-70
2022/11/25 04:52:32;;;;;;;;;;;9.70;99.90;;;;;;5099828;28;20338;-70
2022/11/25 04:54:58;;;;;;;;;;;9.70;99.90;;;;;;5095405;28;19912;-71
2022/11/25 04:57:24;;;;;;;;;;;9.80;99.90;;;;;;5094491;28;20020;-70
2022/11/25 04:59:50;;;;;;;;;;;9.80;99.90;;;;;;5089631;28;19916;-70
2022/11/25 05:02:17;;;;;;;;;;;9.80;99.90;;;;;;5108707;28;19920;-70
2022/11/25 05:04:46;;;;;;;;;;;9.70;99.90;;;;;;5095347;28;20320;-70
2022/11/25 05:07:13;;;;;;;;;;;9.70;99.90;;;;;;5116201;28;19972;-70
2022/11/25 05:09:39;;;;;;;;;;;9.70;99.90;;;;;;5101356;28;19943;-70
2022/11/25 05:12:06;;;;;;;;;;;9.70;99.90;;;;;;5097324;28;19908;-70
2022/11/25 05:14:34;;;;;;;;;;;9.70;99.90;;;;;;5098489;28;19908;-70
2022/11/25 05:17:07;;;;;;;;;;;9.80;99.90;;;;;;5096462;28;19948;-70
2022/11/25 05:19:34;;;;;;;;;;;9.90;99.90;;;;;;5097586;28;19915;-70
2022/11/25 05:22:31;;;;;;;;;;;9.90;99.90;;;;;;5096369;28;19928;-71
2022/11/25 05:25:26;;;;;;;;;;;;;;;;;;;;;
2022/11/25 05:27:52;;;;;;;;;;;9.80;99.90;;;;;;5077748;28;20446;-70
2022/11/25 05:30:18;;;;;;;;;;;9.90;99.90;;;;;;5081335;28;19955;-71
2022/11/25 05:32:44;;;;;;;;;;;10.00;99.90;;;;;;5081415;28;19923;-70
2022/11/25 05:35:10;;;;;;;;;;;10.00;99.90;;;;;;5102327;28;19920;-71
2022/11/25 05:44:14;;;;;;;;;;;10.20;99.90;;;;;;5028099;28;19932;-70
2022/11/25 05:46:39;;;;;;;;;;;10.10;99.90;;;;;;5052955;28;20009;-70
2022/11/25 05:49:05;;;;;;;;;;;10.10;99.90;;;;;;5079917;28;19957;-70
2022/11/25 05:51:30;;;;;;;;;;;10.10;99.90;;;;;;5095945;28;20274;-70
2022/11/25 05:53:56;;;;;;;;;;;10.10;99.90;;;;;;5097321;28;19935;-70
2022/11/25 05:56:22;;;;;;;;;;;10.00;99.90;;;;;;5101758;28;19912;-71
2022/11/25 05:58:54;;;;;;;;;;;10.00;99.90;;;;;;5100156;28;20503;-70
2022/11/25 06:01:22;;;;;;;;;;;10.00;99.90;;;;;;5098836;28;19995;-70
2022/11/25 06:03:47;;;;;;;;;;;10.00;99.90;;;;;;5083739;28;19919;-70
2022/11/25 06:06:13;;;;;;;;;;;10.00;99.90;;;;;;5093618;28;19908;-70
2022/11/25 06:08:39;;;;;;;;;;;10.10;99.90;;;;;;5077834;28;19916;-70
2022/11/25 06:11:06;;;;;;;;;;;10.10;99.90;;;;;;5102764;28;20003;-70
2022/11/25 06:13:32;;;;;;;;;;;10.20;99.90;;;;;;5085719;28;19916;-71
2022/11/25 06:15:57;;;;;;;;;;;10.10;99.90;;;;;;5101967;28;19919;-70
2022/11/25 06:18:23;;;;;;;;;;;10.20;99.90;;;;;;5104568;28;20288;-70
2022/11/25 06:20:56;;;;;;;;;;;10.20;99.90;;;;;;5107802;28;19912;-70
2022/11/25 06:23:22;;;;;;;;;;;10.20;99.90;;;;;;5091701;28;20440;-70
2022/11/25 06:25:48;;;;;;;;;;;10.30;99.90;;;;;;5082395;28;19920;-71
2022/11/25 06:28:16;;;;;;;;;;;10.30;99.90;;;;;;5080845;28;19918;-70
2022/11/25 06:30:42;;;;;;;;;;;10.30;99.90;;;;;;5109541;28;19919;-70
2022/11/25 06:33:08;;;;;;;;;;;10.30;99.90;;;;;;5084982;28;19998;-70
2022/11/25 06:35:34;;;;;;;;;;;10.40;99.90;;;;;;5082429;28;19920;-71
2022/11/25 06:38:00;;;;;;;;;;;10.40;99.90;;;;;;5084982;28;20021;-71
2022/11/25 06:40:26;;;;;;;;;;;10.50;99.90;;;;;;5092880;28;20007;-70
2022/11/25 06:42:51;;;;;;;;;;;10.40;99.90;;;;;;5098628;28;20377;-71
2022/11/25 06:45:17;;;;;;;;;;;10.40;99.90;;;;;;5103596;28;20421;-70
2022/11/25 06:47:43;;;;;;;;;;;10.40;99.90;;;;;;5107711;28;19987;-70
2022/11/25 06:50:09;;;;;;;;;;;10.50;99.90;;;;;;5109127;28;19911;-70
2022/11/25 06:52:35;;;;;;;;;;;10.40;99.90;;;;;;5090759;28;19922;-69
2022/11/25 06:55:01;;;;;;;;;;;10.50;99.90;;;;;;5094415;28;19920;-70
2022/11/25 06:57:26;;;;;;;;;;;10.50;99.90;;;;;;5091615;28;20004;-71
2022/11/25 06:59:52;;;;;;;;;;;10.60;99.90;;;;;;5073657;28;20411;-71
2022/11/25 07:02:18;;;;;;;;;;;10.70;99.90;;;;;;5097315;28;19912;-70
2022/11/25 07:04:43;;;;;;;;;;;10.80;99.90;;;;;;5090116;28;19912;-69
2022/11/25 07:07:09;;;;;;;;;;;10.90;99.90;;;;;;5096629;28;20074;-70
2022/11/25 07:09:35;;;;;;;;;;;10.90;99.90;;;;;;5110996;28;19908;-71
2022/11/25 07:12:01;;;;;;;;;;;10.90;99.90;;;;;;5099034;28;19915;-70
2022/11/25 07:14:26;;;;;;;;;;;11.00;99.90;;;;;;5095911;28;19927;-70
2022/11/25 07:16:52;;;;;;;;;;;11.00;99.90;;;;;;5108842;28;20345;-70
2022/11/25 07:19:18;;;;;;;;;;;11.00;99.90;;;;;;5099631;28;19916;-70
2022/11/25 07:21:44;;;;;;;;;;;11.20;99.90;;;;;;5096404;28;20532;-70
2022/11/25 07:24:11;;;;;;;;;;;11.20;99.90;;;;;;5080640;28;19916;-70
2022/11/25 07:26:37;;;;;;;;;;;11.30;99.90;;;;;;5102056;28;20289;-71
2022/11/25 07:29:05;;;;;;;;;;;11.40;99.90;;;;;;5092208;28;19911;-70
2022/11/25 07:31:32;;;;;;;;;;;11.40;99.90;;;;;;5077942;28;19974;-70
2022/11/25 07:33:59;;;;;;;;;;;11.50;99.90;;;;;;5098206;28;19916;-71
2022/11/25 07:36:25;;;;;;;;;;;11.50;99.90;;;;;;5100559;28;19915;-70
2022/11/25 07:38:51;;;;;;;;;;;11.60;99.90;;;;;;5072555;28;19966;-70
2022/11/25 07:41:18;;;;;;;;;;;11.60;99.90;;;;;;5090284;28;19916;-70
2022/11/25 07:43:45;;;;;;;;;;;11.60;99.90;;;;;;5091713;28;19947;-71
2022/11/25 07:46:15;;;;;;;;;;;11.60;99.90;;;;;;5095515;28;19969;-71
2022/11/25 07:48:41;;;;;;;;;;;11.60;99.90;;;;;;5096801;28;19919;-71
2022/11/25 07:51:18;;;;;;;;;;;11.70;99.90;;;;;;5090931;28;20058;-70
2022/11/25 07:53:44;;;;;;;;;;;11.80;99.90;;;;;;5079012;28;20012;-67
2022/11/25 07:56:09;;;;;;;;;;;11.70;99.90;;;;;;5073803;28;20497;-69
2022/11/25 07:58:35;;;;;;;;;;;11.70;99.90;;;;;;5090950;28;19912;-69
2022/11/25 08:01:01;;;;;;;;;;;11.80;99.90;;;;;;5100023;28;19916;-69
2022/11/25 08:06:17;;;;;;;;;;;11.90;99.90;;;;;;5085372;28;19958;-68
2022/11/25 08:08:43;;;;;;;;;;;12.00;99.90;;;;;;5087519;28;19984;-69
2022/11/25 08:11:13;;;;;;;;;;;12.00;99.90;;;;;;5087271;28;20369;-69
2022/11/25 08:13:39;;;;;;;;;;;11.90;99.90;;;;;;5080865;28;20110;-70
2022/11/25 08:16:05;;;;;;;;;;;11.90;99.90;;;;;;5076316;28;19948;-68
2022/11/25 08:18:31;;;;;;;;;;;11.90;99.90;;;;;;5094769;28;19919;-69
2022/11/25 08:21:00;;;;;;;;;;;12.00;99.90;;;;;;5075777;28;19912;-69
2022/11/25 08:23:26;;;;;;;;;;;12.00;99.90;;;;;;5092304;28;19919;-70
2022/11/25 08:25:52;;;;;;;;;;;12.00;99.90;;;;;;5093286;28;19915;-69
2022/11/25 08:28:18;;;;;;;;;;;12.10;99.90;;;;;;5094590;28;19909;-68
2022/11/25 08:30:43;;;;;;;;;;;12.10;99.90;;;;;;5095472;28;19916;-68
2022/11/25 08:33:09;;;;;;;;;;;12.20;99.90;;;;;;5103144;28;19974;-67
2022/11/25 08:35:36;;;;;;;;;;;12.20;99.90;;;;;;5079304;28;19912;-68
2022/11/25 08:38:06;;;;;;;;;;;12.30;99.90;;;;;;5076055;28;20374;-67
2022/11/25 08:40:33;;;;;;;;;;;12.30;99.90;;;;;;5091719;28;19931;-68
2022/11/25 08:42:58;;;;;;;;;;;12.40;99.90;;;;;;5105158;28;19995;-68
2022/11/25 08:45:24;;;;;;;;;;;12.60;99.90;;;;;;5091540;28;19962;-63
2022/11/25 08:47:50;;;;;;;;;;;12.60;99.90;;;;;;5092749;28;20358;-66
2022/11/25 08:50:16;;;;;;;;;;;12.70;99.90;;;;;;5101781;28;19951;-69
2022/11/25 08:52:41;;;;;;;;;;;12.90;99.90;;;;;;5106245;28;19919;-70
2022/11/25 08:55:07;;;;;;;;;;;12.90;99.90;;;;;;5078105;28;19980;-69
2022/11/25 08:57:33;;;;;;;;;;;13.10;99.90;;;;;;5074950;28;19915;-69
2022/11/25 08:59:59;;;;;;;;;;;13.20;99.90;;;;;;5075561;28;19908;-69
2022/11/25 09:02:25;;;;;;;;;;;13.20;99.90;;;;;;5072788;28;20126;-69
2022/11/25 09:04:51;;;;;;;;;;;13.40;99.90;;;;;;5106967;28;19962;-68
2022/11/25 09:07:17;;;;;;;;;;;13.50;99.90;;;;;;5121191;27;20440;-69
2022/11/25 09:09:42;;;;;;;;;;;13.50;99.90;;;;;;5077299;28;20319;-69
2022/11/25 09:12:08;;;;;;;;;;;13.60;99.90;;;;;;5075392;28;19908;-70
2022/11/25 09:14:34;;;;;;;;;;;13.60;99.90;;;;;;5118549;27;19926;-70
2022/11/25 09:17:00;;;;;;;;;;;13.70;99.90;;;;;;5074615;28;19924;-71
2022/11/25 09:19:26;;;;;;;;;;;13.60;99.90;;;;;;5096268;28;19915;-70
2022/11/25 09:21:53;;;;;;;;;;;13.60;99.90;;;;;;5089953;28;19912;-70
2022/11/25 09:24:19;;;;;;;;;;;13.60;99.90;;;;;;5092793;28;20412;-70
2022/11/25 09:26:44;;;;;;;;;;;13.70;99.90;;;;;;5095254;28;19955;-71
2022/11/25 09:29:11;;;;;;;;;;;13.60;99.90;;;;;;5088368;28;19967;-71
2022/11/25 09:31:37;;;;;;;;;;;13.60;99.90;;;;;;5095985;28;19912;-69
2022/11/25 09:34:02;;;;;;;;;;;13.60;99.90;;;;;;5102952;28;20289;-70
2022/11/25 09:36:28;;;;;;;;;;;13.60;99.90;;;;;;5082872;28;19916;-70
2022/11/25 09:38:54;;;;;;;;;;;13.70;99.90;;;;;;5080176;28;19911;-70
2022/11/25 09:47:11;;;;;;;;;;;13.70;99.90;;;;;;5104102;28;19970;-70
2022/11/25 09:49:51;;;;;;;;;;;13.90;99.90;;;;;;5092037;28;19923;-71
2022/11/25 09:52:36;;;;;;;;;;;14.00;99.90;;;;;;5096950;28;19912;-70
2022/11/25 09:55:10;;;;;;;;;;;14.10;99.90;;;;;;5071323;28;19919;-70
2022/11/25 09:57:42;;;;;;;;;;;14.20;99.90;;;;;;5089646;28;19953;-71
2022/11/25 10:00:12;;;;;;;;;;;14.40;99.90;;;;;;5094312;28;19908;-70
2022/11/25 10:02:44;;;;;;;;;;;14.50;99.90;;;;;;5097516;28;20067;-70
2022/11/25 10:05:22;;;;;;;;;;;14.60;99.90;;;;;;5083552;28;19916;-70
2022/11/25 10:08:08;;;;;;;;;;;14.70;99.90;;;;;;5076115;28;19915;-70
2022/11/25 10:10:49;;;;;;;;;;;14.70;99.90;;;;;;5049851;28;19919;-70
2022/11/25 10:13:34;;;;;;;;;;;14.70;99.90;;;;;;5075436;28;19951;-70
2022/11/25 10:16:02;;;;;;;;;;;14.80;99.90;;;;;;5090865;28;19916;-69
2022/11/25 10:18:30;;;;;;;;;;;15.00;99.90;;;;;;5071864;28;19955;-70
2022/11/25 10:20:56;;;;;;;;;;;15.00;99.90;;;;;;5071940;28;19945;-70
2022/11/25 10:23:22;;;;;;;;;;;15.10;99.90;;;;;;5090584;28;20334;-70
2022/11/25 10:25:51;;;;;;;;;;;15.10;99.90;;;;;;5092391;28;19908;-69
2022/11/25 10:28:19;;;;;;;;;;;15.20;99.90;;;;;;5091400;28;20269;-70
2022/11/25 10:30:44;;;;;;;;;;;15.30;99.90;;;;;;5091864;28;19919;-69
2022/11/25 10:33:13;;;;;;;;;;;15.30;99.90;;;;;;5093186;28;19916;-69
2022/11/25 10:35:42;;;;;;;;;;;15.30;99.90;;;;;;5092606;28;19908;-69
2022/11/25 10:38:12;;;;;;;;;;;15.30;99.90;;;;;;5091940;28;20348;-70
2022/11/25 10:40:37;;;;;;;;;;;15.40;99.90;;;;;;5085107;28;19932;-69
2022/11/25 10:43:13;;;;;;;;;;;15.50;99.90;;;;;;5094992;28;20381;-70
2022/11/25 10:45:53;;;;;;;;;;;15.50;99.90;;;;;;5088805;28;20434;-70
2022/11/25 10:48:26;;;;;;;;;;;15.50;99.90;;;;;;5096132;28;19920;-70
2022/11/25 10:50:58;;;;;;;;;;;15.60;99.90;;;;;;5099070;28;19917;-70
2022/11/25 10:53:24;;;;;;;;;;;15.70;99.90;;;;;;5106459;28;20352;-70
2022/11/25 10:55:56;;;;;;;;;;;15.80;99.90;;;;;;5077682;28;20412;-70
2022/11/25 10:58:27;;;;;;;;;;;15.80;99.90;;;;;;5094950;28;19912;-70
2022/11/25 11:01:05;;;;;;;;;;;15.90;99.90;;;;;;5076814;28;19943;-70
2022/11/25 11:03:31;;;;;;;;;;;15.90;99.90;;;;;;5121494;27;20007;-70
2022/11/25 11:05:56;;;;;;;;;;;16.00;99.90;;;;;;5105836;28;19971;-70
2022/11/25 11:08:26;;;;;;;;;;;16.00;99.90;;;;;;5110148;28;19916;-70
2022/11/25 11:11:10;;;;;;;;;;;16.10;99.90;;;;;;5079791;28;19912;-69
2022/11/25 11:13:36;;;;;;;;;;;16.10;99.90;;;;;;5108896;28;19947;-69
2022/11/25 11:16:02;;;;;;;;;;;16.10;99.90;;;;;;5080081;28;19912;-69
2022/11/25 11:18:37;;;;;;;;;;;16.10;99.90;;;;;;5094324;28;19920;-69
2022/11/25 11:21:04;;;;;;;;;;;16.10;99.90;;;;;;5095836;28;19912;-70
2022/11/25 11:23:30;;;;;;;;;;;16.10;99.90;;;;;;5083601;28;19912;-70
2022/11/25 11:25:58;;;;;;;;;;;16.10;99.90;;;;;;5095992;28;19943;-70
2022/11/25 11:28:23;;;;;;;;;;;16.10;99.90;;;;;;5081866;28;19923;-69
2022/11/25 11:30:54;;;;;;;;;;;16.10;99.90;;;;;;5107018;28;19912;-69
2022/11/25 11:33:38;;;;;;;;;;;16.10;99.90;;;;;;5123687;27;19930;-69
2022/11/25 11:36:10;;;;;;;;;;;16.10;99.90;;;;;;5104002;28;20389;-69
2022/11/25 11:38:43;;;;;;;;;;;16.10;99.90;;;;;;5083449;28;19912;-69
2022/11/25 11:41:08;;;;;;;;;;;16.20;99.90;;;;;;5076415;28;19915;-68
2022/11/25 11:43:40;;;;;;;;;;;16.20;99.90;;;;;;5079634;28;19999;-69
2022/11/25 11:46:06;;;;;;;;;;;16.30;99.90;;;;;;5101949;28;20377;-69
2022/11/25 11:48:43;;;;;;;;;;;16.30;99.90;;;;;;5097099;28;19966;-69
2022/11/25 11:51:12;;;;;;;;;;;16.40;99.90;;;;;;5096038;28;20028;-70
2022/11/25 11:53:41;;;;;;;;;;;16.40;99.90;;;;;;5101205;28;19924;-70
2022/11/25 11:56:10;;;;;;;;;;;16.30;99.90;;;;;;5101497;28;19915;-69
2022/11/25 11:58:56;;;;;;;;;;;16.40;99.90;;;;;;5099905;28;19912;-70
2022/11/25 12:01:21;;;;;;;;;;;16.40;99.90;;;;;;5106744;28;19992;-70
2022/11/25 12:03:59;;;;;;;;;;;16.30;99.90;;;;;;5092390;28;20428;-70
2022/11/25 12:06:27;;;;;;;;;;;16.20;99.90;;;;;;5104223;28;19912;-70
2022/11/25 12:09:22;;;;;;;;;;;16.20;99.90;;;;;;5104073;28;19923;-70
2022/11/25 12:11:50;;;;;;;;;;;16.20;99.90;;;;;;5074735;28;20293;-70
2022/11/25 12:14:22;;;;;;;;;;;16.10;99.90;;;;;;5083132;28;19922;-70
2022/11/25 12:16:54;;;;;;;;;;;16.10;99.90;;;;;;5075262;28;19999;-71
2022/11/25 12:19:35;;;;;;;;;;;16.20;99.90;;;;;;5072425;28;19935;-71
2022/11/25 12:22:16;;;;;;;;;;;16.20;99.90;;;;;;5092403;28;19919;-71
2022/11/25 12:24:41;;;;;;;;;;;16.30;99.90;;;;;;5113659;28;19908;-71
2022/11/25 12:27:11;;;;;;;;;;;16.30;99.90;;;;;;5099185;28;19931;-71
2022/11/25 12:29:52;;;;;;;;;;;16.40;99.90;;;;;;5097675;28;19908;-71
2022/11/25 12:32:20;;;;;;;;;;;16.40;99.90;;;;;;5101353;28;19912;-71
2022/11/25 12:34:52;;;;;;;;;;;16.40;99.90;;;;;;5096042;28;20457;-70
2022/11/25 12:37:26;;;;;;;;;;;16.40;99.90;;;;;;5078848;28;19912;-72
2022/11/25 12:39:59;;;;;;;;;;;16.40;99.90;;;;;;5090475;28;19956;-72
2022/11/25 12:42:27;;;;;;;;;;;16.50;99.90;;;;;;5093423;28;19934;-70
2022/11/25 12:44:59;;;;;;;;;;;16.60;99.90;;;;;;5093742;28;20023;-71
2022/11/25 12:47:25;;;;;;;;;;;16.50;99.90;;;;;;5091857;28;19920;-70
2022/11/25 12:49:52;;;;;;;;;;;16.60;99.90;;;;;;5102821;28;19998;-70
2022/11/25 12:52:20;;;;;;;;;;;16.70;99.90;;;;;;5107846;28;19912;-70
2022/11/25 12:54:49;;;;;;;;;;;16.70;99.90;;;;;;5095884;28;19955;-70
2022/11/25 12:57:18;;;;;;;;;;;16.70;99.90;;;;;;5092722;28;19919;-70
2022/11/25 13:00:02;;;;;;;;;;;16.80;99.90;;;;;;5101814;28;20446;-70
2022/11/25 13:02:28;;;;;;;;;;;16.70;99.90;;;;;;5093974;28;20007;-70
2022/11/25 13:05:12;;;;;;;;;;;16.70;99.90;;;;;;5093303;28;19951;-70
2022/11/25 13:07:58;;;;;;;;;;;16.70;99.90;;;;;;5099161;28;19919;-70
2022/11/25 13:10:24;;;;;;;;;;;16.80;99.90;;;;;;5088015;28;19915;-70
2022/11/25 13:12:49;;;;;;;;;;;16.70;99.90;;;;;;5114344;28;19912;-70
2022/11/25 13:15:15;;;;;;;;;;;16.60;99.90;;;;;;5129965;27;19915;-70
2022/11/25 13:17:43;;;;;;;;;;;16.60;99.90;;;;;;5119825;27;19916;-70
2022/11/25 13:20:31;;;;;;;;;;;16.60;99.90;;;;;;5105150;28;19912;-70
2022/11/25 13:23:07;;;;;;;;;;;16.50;99.90;;;;;;5110572;28;20349;-70
2022/11/25 13:25:33;;;;;;;;;;;16.60;99.90;;;;;;5102182;28;19912;-71
2022/11/25 13:28:25;;;;;;;;;;;16.70;99.90;;;;;;5101868;28;19965;-70
2022/11/25 13:30:51;;;;;;;;;;;16.70;99.90;;;;;;5090214;28;19912;-70
2022/11/25 13:33:17;;;;;;;;;;;16.60;99.90;;;;;;5095584;28;19916;-68
2022/11/25 13:35:42;;;;;;;;;;;16.60;99.90;;;;;;5112773;28;19907;-69
2022/11/25 13:38:27;;;;;;;;;;;16.50;99.90;;;;;;5112271;28;19912;-70
2022/11/25 13:40:59;;;;;;;;;;;16.40;99.90;;;;;;5100881;28;19908;-70
2022/11/25 13:43:25;;;;;;;;;;;16.40;99.90;;;;;;5108936;28;19908;-70
2022/11/25 13:45:51;;;;;;;;;;;16.40;99.90;;;;;;5093111;28;20023;-69
2022/11/25 13:48:19;;;;;;;;;;;16.40;99.90;;;;;;5092139;28;20321;-70
2022/11/25 13:50:46;;;;;;;;;;;16.40;99.90;;;;;;5092457;28;20274;-70
2022/11/25 13:53:27;;;;;;;;;;;16.30;99.90;;;;;;5084348;28;20006;-69
2022/11/25 13:56:10;;;;;;;;;;;16.20;99.90;;;;;;5099782;28;19947;-70
2022/11/25 13:58:36;;;;;;;;;;;16.10;99.90;;;;;;5090186;28;19951;-70
2022/11/25 14:01:04;;;;;;;;;;;16.10;99.90;;;;;;5088902;28;19948;-68
2022/11/25 14:03:30;;;;;;;;;;;16.00;99.90;;;;;;5090573;28;20332;-68
2022/11/25 14:05:56;;;;;;;;;;;16.00;99.90;;;;;;5094636;28;19908;-70
2022/11/25 14:08:42;;;;;;;;;;;16.00;99.90;;;;;;5093153;28;19912;-70
2022/11/25 14:11:16;;;;;;;;;;;16.00;99.90;;;;;;5073103;28;19915;-73
2022/11/25 14:13:45;;;;;;;;;;;15.90;99.90;;;;;;5092346;28;19916;-70
2022/11/25 14:16:29;;;;;;;;;;;15.90;99.90;;;;;;5087885;28;19926;-70
2022/11/25 14:19:14;;;;;;;;;;;15.70;99.90;;;;;;5075414;28;19935;-71
2022/11/25 14:21:58;;;;;;;;;;;15.50;99.90;;;;;;5074787;28;20097;-71
2022/11/25 14:24:29;;;;;;;;;;;15.50;99.90;;;;;;5115937;27;19938;-70
2022/11/25 14:26:56;;;;;;;;;;;15.40;99.90;;;;;;5091979;28;19908;-70
2022/11/25 14:29:31;;;;;;;;;;;15.30;99.90;;;;;;5095955;28;19915;-71
2022/11/25 14:32:02;;;;;;;;;;;15.20;99.90;;;;;;5096107;28;19908;-71
2022/11/25 14:34:31;;;;;;;;;;;15.20;99.90;;;;;;5108492;28;20008;-71
2022/11/25 14:37:00;;;;;;;;;;;15.20;99.90;;;;;;5095895;28;19950;-70
2022/11/25 14:39:38;;;;;;;;;;;15.10;99.90;;;;;;5102060;28;19991;-71
2022/11/25 14:42:09;;;;;;;;;;;15.10;99.90;;;;;;5077322;28;19987;-72
2022/11/25 14:44:38;;;;;;;;;;;15.10;99.90;;;;;;5080511;28;19912;-71
2022/11/25 14:47:04;;;;;;;;;;;15.10;99.90;;;;;;5080715;28;20007;-71
2022/11/25 14:49:49;;;;;;;;;;;15.10;99.90;;;;;;5084145;28;19962;-72
2022/11/25 14:52:16;;;;;;;;;;;15.10;99.90;;;;;;5082354;28;19912;-71
2022/11/25 14:54:43;;;;;;;;;;;15.20;99.90;;;;;;5098481;28;19970;-72